Time;durP1;ratioP1;P1;durP2;ratioP2;P2;SDS_P1;SDS_P2;PMS_P1;PMS_P2;Temp;Humidity;BMP_temperature;BMP_pressure;BME280_temperature;BME280_humidity;BME280_pressure;Samples;Min_cycle;Max_cycle;Signal;HPM_P1;HPM_P2
2021/07/04 00:01:38;;;;;;;0.32;0.25;;;20.20;99.90;;;;;;5090542;28;20678;-74
2021/07/04 00:04:05;;;;;;;0.15;0.15;;;20.20;99.90;;;;;;5089850;28;20152;-74
2021/07/04 00:06:31;;;;;;;0.30;0.30;;;20.20;99.90;;;;;;5072337;28;20179;-74
2021/07/04 00:08:56;;;;;;;0.80;0.80;;;20.20;99.90;;;;;;5089581;28;20555;-74
2021/07/04 00:11:22;;;;;;;0.17;0.17;;;20.20;99.90;;;;;;5072265;28;20263;-74
2021/07/04 00:13:49;;;;;;;0.30;0.30;;;20.30;99.90;;;;;;5089700;28;20155;-74
2021/07/04 00:16:16;;;;;;;2.22;1.13;;;20.30;99.90;;;;;;5090164;28;20286;-75
2021/07/04 00:18:42;;;;;;;0.30;0.30;;;20.20;99.90;;;;;;5089842;28;20255;-74
2021/07/04 00:21:09;;;;;;;0.52;0.52;;;20.20;99.90;;;;;;5089864;28;20186;-75
2021/07/04 00:23:37;;;;;;;0.20;0.20;;;20.20;99.90;;;;;;5089462;28;20153;-75
2021/07/04 00:26:05;;;;;;;10.88;1.30;;;20.10;99.90;;;;;;5075314;28;20200;-75
2021/07/04 00:28:31;;;;;;;0.52;0.52;;;20.10;99.90;;;;;;5069815;28;20245;-74
2021/07/04 00:30:58;;;;;;;0.10;0.10;;;20.10;99.90;;;;;;5058747;28;20660;-74
2021/07/04 00:33:24;;;;;;;0.40;0.40;;;20.10;99.90;;;;;;5089277;28;20191;-75
2021/07/04 00:35:51;;;;;;;0.40;0.40;;;20.10;99.90;;;;;;5089796;28;20160;-74
2021/07/04 00:38:18;;;;;;;0.30;0.30;;;20.10;99.90;;;;;;5089652;28;20188;-74
2021/07/04 00:40:44;;;;;;;0.65;0.65;;;20.10;99.90;;;;;;5089602;28;20195;-74
2021/07/04 00:43:11;;;;;;;0.55;0.55;;;20.10;99.90;;;;;;5071761;28;20163;-74
2021/07/04 00:45:37;;;;;;;0.88;0.68;;;20.10;99.90;;;;;;5089512;28;20200;-74
2021/07/04 00:48:04;;;;;;;0.73;0.55;;;20.20;99.90;;;;;;5089761;28;20176;-74
2021/07/04 00:50:31;;;;;;;0.30;0.30;;;20.20;99.90;;;;;;5089559;28;20196;-74
2021/07/04 00:52:59;;;;;;;0.70;0.38;;;20.10;99.90;;;;;;5089519;28;20159;-74
2021/07/04 00:55:25;;;;;;;1.17;0.85;;;20.10;99.90;;;;;;5089557;28;20172;-74
2021/07/04 00:57:52;;;;;;;1.98;0.80;;;20.10;99.90;;;;;;5089547;28;20189;-74
2021/07/04 01:00:23;;;;;;;0.70;0.70;;;20.10;99.90;;;;;;5089519;28;20192;-74
2021/07/04 01:02:50;;;;;;;2.45;0.80;;;20.20;99.90;;;;;;5071533;28;20168;-74
2021/07/04 01:05:19;;;;;;;0.52;0.52;;;20.20;99.90;;;;;;5089428;28;20152;-74
2021/07/04 01:07:46;;;;;;;0.40;0.40;;;20.20;99.90;;;;;;5071286;28;20176;-74
2021/07/04 01:10:17;;;;;;;0.30;0.30;;;20.30;99.90;;;;;;5089349;28;20661;-74
2021/07/04 01:12:45;;;;;;;1.77;1.05;;;20.20;99.90;;;;;;5089447;28;20238;-74
2021/07/04 01:15:13;;;;;;;1.00;0.73;;;20.30;99.90;;;;;;5089376;28;20175;-74
2021/07/04 01:17:39;;;;;;;0.32;0.32;;;20.20;99.90;;;;;;5071286;28;20192;-74
2021/07/04 01:20:10;;;;;;;0.70;0.68;;;20.30;99.90;;;;;;5089173;28;20191;-74
2021/07/04 01:22:39;;;;;;;0.30;0.30;;;20.30;99.90;;;;;;5089247;28;20298;-74
2021/07/04 01:25:08;;;;;;;1.27;0.38;;;20.30;99.90;;;;;;5089103;28;20190;-74
2021/07/04 01:27:35;;;;;;;0.80;0.65;;;20.20;99.90;;;;;;5089273;28;20176;-74
2021/07/04 01:30:01;;;;;;;0.20;0.20;;;20.30;99.90;;;;;;5089079;28;20196;-74
2021/07/04 01:32:27;;;;;;;0.13;0.13;;;20.30;99.90;;;;;;5089016;28;20660;-74
2021/07/04 01:34:53;;;;;;;0.40;0.40;;;20.40;99.90;;;;;;5071060;28;20171;-73
2021/07/04 01:37:19;;;;;;;0.20;0.20;;;20.40;99.90;;;;;;5089113;28;20187;-74
2021/07/04 01:39:45;;;;;;;0.40;0.40;;;20.30;99.90;;;;;;5089045;28;20179;-74
2021/07/04 01:42:11;;;;;;;0.40;0.22;;;20.30;99.90;;;;;;5089338;28;20190;-74
2021/07/04 01:44:37;;;;;;;0.35;0.35;;;20.40;99.90;;;;;;5071062;28;20235;-74
2021/07/04 01:47:03;;;;;;;0.20;0.20;;;20.30;99.90;;;;;;5070710;28;20231;-74
2021/07/04 01:49:29;;;;;;;0.50;0.50;;;20.40;99.90;;;;;;5071056;28;20195;-74
2021/07/04 01:51:55;;;;;;;0.40;0.40;;;20.40;99.90;;;;;;5070755;28;20230;-74
2021/07/04 01:54:21;;;;;;;0.40;0.40;;;20.40;99.90;;;;;;5070987;28;20164;-74
2021/07/04 01:56:47;;;;;;;0.40;0.40;;;20.40;99.90;;;;;;5088984;28;20160;-74
2021/07/04 01:59:13;;;;;;;1.63;0.55;;;20.40;99.90;;;;;;5088903;28;20157;-74
2021/07/04 02:01:39;;;;;;;0.90;0.73;;;20.50;99.90;;;;;;5070813;28;20226;-74
2021/07/04 02:04:05;;;;;;;0.55;0.55;;;20.40;99.90;;;;;;5088862;28;20172;-74
2021/07/04 02:06:33;;;;;;;1.55;0.80;;;20.50;99.90;;;;;;5088847;28;20168;-75
2021/07/04 02:09:00;;;;;;;0.30;0.30;;;20.40;99.90;;;;;;5088777;28;20160;-74
2021/07/04 02:11:26;;;;;;;0.73;0.35;;;20.30;99.90;;;;;;5088583;28;20200;-74
2021/07/04 02:13:52;;;;;;;0.17;0.17;;;20.30;99.90;;;;;;5088856;28;20221;-74
2021/07/04 02:16:18;;;;;;;0.40;0.40;;;20.40;99.90;;;;;;5088710;28;20160;-74
2021/07/04 02:18:45;;;;;;;0.45;0.45;;;20.60;99.90;;;;;;5088741;28;20156;-74
2021/07/04 02:21:11;;;;;;;0.47;0.28;;;20.60;99.90;;;;;;5088635;28;20191;-74
2021/07/04 02:23:37;;;;;;;0.98;0.60;;;20.60;99.90;;;;;;5088782;28;20162;-74
2021/07/04 02:26:03;;;;;;;0.20;0.20;;;20.60;99.90;;;;;;5088535;28;20201;-74
2021/07/04 02:28:32;;;;;;;0.45;0.35;;;20.50;99.90;;;;;;5070704;28;20179;-74
2021/07/04 02:30:59;;;;;;;0.63;0.63;;;20.50;99.90;;;;;;5088688;28;20587;-74
2021/07/04 02:33:26;;;;;;;0.43;0.43;;;20.30;99.90;;;;;;5091193;28;20148;-74
2021/07/04 02:35:56;;;;;;;0.55;0.40;;;20.30;99.90;;;;;;5092257;28;20188;-74
2021/07/04 02:38:24;;;;;;;0.10;0.10;;;20.30;99.90;;;;;;5092329;28;20164;-74
2021/07/04 02:40:50;;;;;;;0.55;0.55;;;20.40;99.90;;;;;;5074194;28;20200;-73
2021/07/04 02:43:20;;;;;;;0.47;0.47;;;20.40;99.90;;;;;;5074087;28;20164;-74
2021/07/04 02:45:47;;;;;;;0.30;0.30;;;20.30;99.90;;;;;;5091738;28;20223;-74
2021/07/04 02:48:14;;;;;;;0.40;0.40;;;20.30;99.90;;;;;;5073911;28;20175;-74
2021/07/04 02:50:42;;;;;;;1.50;0.60;;;20.30;99.90;;;;;;5091721;28;20191;-74
2021/07/04 02:53:09;;;;;;;1.23;1.13;;;20.40;99.90;;;;;;5091859;28;20162;-74
2021/07/04 02:55:37;;;;;;;0.20;0.20;;;20.40;99.90;;;;;;5091912;28;20525;-74
2021/07/04 02:58:05;;;;;;;0.32;0.32;;;20.30;99.90;;;;;;5073789;28;20659;-74
2021/07/04 03:00:31;;;;;;;1.40;1.30;;;20.10;99.90;;;;;;5091573;28;20192;-74
2021/07/04 03:02:57;;;;;;;0.73;0.73;;;19.70;99.90;;;;;;5073756;28;20246;-74
2021/07/04 03:05:23;;;;;;;0.90;0.47;;;19.40;99.90;;;;;;5073670;28;20178;-74
2021/07/04 03:07:49;;;;;;;0.45;0.45;;;19.10;99.90;;;;;;5073678;28;20182;-74
2021/07/04 03:10:21;;;;;;;0.55;0.50;;;18.90;99.90;;;;;;5091591;28;20243;-74
2021/07/04 03:12:47;;;;;;;0.50;0.50;;;18.80;99.90;;;;;;5091423;28;20163;-74
2021/07/04 03:15:14;;;;;;;1.33;1.23;;;18.70;99.90;;;;;;5091505;28;20155;-74
2021/07/04 03:17:40;;;;;;;1.20;1.02;;;18.70;99.90;;;;;;5073352;28;20552;-74
2021/07/04 03:20:09;;;;;;;0.57;0.43;;;18.70;99.90;;;;;;5091273;28;20195;-74
2021/07/04 03:22:35;;;;;;;3.95;0.50;;;18.70;99.90;;;;;;5091446;28;20167;-74
2021/07/04 03:25:03;;;;;;;0.95;0.88;;;18.70;99.90;;;;;;5071414;28;20191;-74
2021/07/04 03:27:29;;;;;;;0.65;0.65;;;18.80;99.90;;;;;;5090114;28;20183;-74
2021/07/04 03:29:55;;;;;;;1.40;0.80;;;18.90;99.90;;;;;;5091009;28;20196;-74
2021/07/04 03:32:21;;;;;;;0.20;0.20;;;19.00;99.90;;;;;;5090924;28;20672;-74
2021/07/04 03:34:49;;;;;;;0.30;0.30;;;19.00;99.90;;;;;;5091006;28;20164;-74
2021/07/04 03:37:16;;;;;;;0.20;0.20;;;19.00;99.90;;;;;;5091120;28;20152;-74
2021/07/04 03:39:42;;;;;;;0.20;0.20;;;19.00;99.90;;;;;;5089961;28;20153;-75
2021/07/04 03:42:10;;;;;;;0.10;0.10;;;19.00;99.90;;;;;;5090888;28;20164;-74
2021/07/04 03:44:37;;;;;;;0.20;0.20;;;19.00;99.90;;;;;;5089833;28;20176;-74
2021/07/04 03:47:03;;;;;;;0.43;0.43;;;19.00;99.90;;;;;;5090688;28;20215;-74
2021/07/04 03:49:29;;;;;;;0.93;0.93;;;18.90;99.90;;;;;;5072848;28;20226;-74
2021/07/04 03:51:55;;;;;;;0.57;0.50;;;18.80;99.90;;;;;;5090596;28;20211;-74
2021/07/04 03:54:21;;;;;;;0.17;0.17;;;18.70;99.90;;;;;;5090761;28;20183;-74
2021/07/04 03:56:47;;;;;;;1.85;0.80;;;18.70;99.90;;;;;;5090587;28;20215;-74
2021/07/04 03:59:13;;;;;;;0.70;0.70;;;18.60;99.90;;;;;;5072630;28;20175;-74
2021/07/04 04:01:39;;;;;;;0.65;0.65;;;18.70;99.90;;;;;;5090537;28;20191;-74
2021/07/04 04:04:04;;;;;;;0.57;0.57;;;18.70;99.90;;;;;;5090431;28;20231;-74
2021/07/04 04:06:30;;;;;;;0.63;0.63;;;18.80;99.90;;;;;;5090459;28;20164;-74
2021/07/04 04:08:56;;;;;;;6.32;1.10;;;18.80;99.90;;;;;;5090414;28;20164;-74
2021/07/04 04:11:22;;;;;;;0.60;0.35;;;18.90;99.90;;;;;;5072100;28;20223;-74
2021/07/04 04:13:48;;;;;;;0.68;0.68;;;18.90;99.90;;;;;;5090189;28;20187;-74
2021/07/04 04:16:15;;;;;;;0.13;0.13;;;18.90;99.90;;;;;;5072230;28;20586;-74
2021/07/04 04:18:41;;;;;;;0.90;0.90;;;18.90;99.90;;;;;;5090350;28;20166;-74
2021/07/04 04:21:08;;;;;;;1.88;1.75;;;18.80;99.90;;;;;;5071997;28;20196;-74
2021/07/04 04:23:35;;;;;;;0.45;0.32;;;18.90;99.90;;;;;;5072046;28;20176;-74
2021/07/04 04:26:02;;;;;;;0.88;0.88;;;19.00;99.90;;;;;;5090028;28;20206;-74
2021/07/04 04:28:30;;;;;;;0.20;0.20;;;18.90;99.90;;;;;;5090069;28;20168;-74
2021/07/04 04:30:57;;;;;;;2.78;0.60;;;19.00;99.90;;;;;;5082860;28;20238;-74
2021/07/04 04:33:23;;;;;;;1.58;1.48;;;19.10;99.90;;;;;;5069948;28;20180;-74
2021/07/04 04:35:49;;;;;;;0.52;0.52;;;19.20;99.90;;;;;;5052116;28;20221;-74
2021/07/04 04:38:15;;;;;;;0.47;0.47;;;19.20;99.90;;;;;;5051850;28;20157;-74
2021/07/04 04:40:41;;;;;;;0.50;0.50;;;19.20;99.90;;;;;;5051830;28;20196;-74
2021/07/04 04:43:07;;;;;;;0.47;0.47;;;19.00;99.90;;;;;;5051733;28;20160;-74
2021/07/04 04:45:33;;;;;;;0.40;0.40;;;19.00;99.90;;;;;;5069580;28;20180;-74
2021/07/04 04:47:58;;;;;;;1.55;1.10;;;18.90;99.90;;;;;;5069699;28;20165;-74
2021/07/04 04:50:24;;;;;;;0.88;0.82;;;18.90;99.90;;;;;;5069297;28;20188;-74
2021/07/04 04:52:51;;;;;;;0.77;0.77;;;18.90;99.90;;;;;;5069670;28;20161;-74
2021/07/04 04:55:17;;;;;;;0.32;0.32;;;18.90;99.90;;;;;;5069185;28;20153;-74
2021/07/04 04:57:43;;;;;;;0.98;0.98;;;18.90;99.90;;;;;;5069434;28;20168;-74
2021/07/04 05:00:12;;;;;;;1.95;0.95;;;18.80;99.90;;;;;;5051104;28;20189;-74
2021/07/04 05:02:37;;;;;;;2.08;1.38;;;18.80;99.90;;;;;;5051325;28;20168;-74
2021/07/04 05:05:05;;;;;;;1.20;1.05;;;18.80;99.90;;;;;;5051326;28;20173;-74
2021/07/04 05:07:30;;;;;;;0.88;0.40;;;18.90;99.90;;;;;;5051479;28;20196;-74
2021/07/04 05:09:56;;;;;;;0.80;0.80;;;18.90;99.90;;;;;;5069296;28;20161;-74
2021/07/04 05:12:22;;;;;;;0.47;0.47;;;18.90;99.90;;;;;;5069225;28;20210;-74
2021/07/04 05:14:48;;;;;;;1.25;0.63;;;18.80;99.90;;;;;;5069448;28;20168;-74
2021/07/04 05:17:16;;;;;;;1.05;0.65;;;18.80;99.90;;;;;;5069230;28;20169;-74
2021/07/04 05:19:42;;;;;;;5.95;1.73;;;18.60;99.90;;;;;;5069116;28;20153;-74
2021/07/04 05:22:08;;;;;;;0.35;0.35;;;18.40;99.90;;;;;;5069178;28;20240;-74
2021/07/04 05:24:34;;;;;;;2.42;0.60;;;18.40;99.90;;;;;;5069168;28;20252;-74
2021/07/04 05:27:00;;;;;;;0.20;0.20;;;18.30;99.90;;;;;;5081857;28;20209;-74
2021/07/04 05:29:26;;;;;;;0.47;0.47;;;18.30;99.90;;;;;;5071095;28;20179;-74
2021/07/04 05:31:52;;;;;;;1.75;1.65;;;18.20;99.90;;;;;;5088975;28;20203;-74
2021/07/04 05:34:18;;;;;;;3.05;1.73;;;18.20;99.90;;;;;;5089203;28;20294;-74
2021/07/04 05:36:47;;;;;;;0.85;0.85;;;18.20;99.90;;;;;;5089288;28;20149;-74
2021/07/04 05:39:13;;;;;;;0.75;0.68;;;18.30;99.90;;;;;;5089160;28;20176;-74
2021/07/04 05:41:39;;;;;;;5.78;1.17;;;18.30;99.90;;;;;;5088993;28;20191;-74
2021/07/04 05:44:05;;;;;;;0.57;0.57;;;18.30;99.90;;;;;;5089043;28;20180;-75
2021/07/04 05:46:35;;;;;;;1.30;1.20;;;18.30;99.90;;;;;;5088872;28;20216;-74
2021/07/04 05:49:02;;;;;;;1.17;1.08;;;18.20;99.90;;;;;;5089041;28;20172;-74
2021/07/04 05:51:28;;;;;;;3.50;1.00;;;18.10;99.90;;;;;;5088701;28;20200;-74
2021/07/04 05:53:54;;;;;;;0.43;0.43;;;18.10;99.90;;;;;;5089145;28;20247;-74
2021/07/04 05:56:20;;;;;;;0.35;0.35;;;18.20;99.90;;;;;;5071017;28;20186;-74
2021/07/04 05:58:46;;;;;;;0.60;0.60;;;18.10;99.90;;;;;;5088884;28;20157;-74
2021/07/04 06:01:12;;;;;;;0.20;0.20;;;18.10;99.90;;;;;;5088926;28;20199;-74
2021/07/04 06:03:38;;;;;;;10.15;1.65;;;18.00;99.90;;;;;;5088989;28;20223;-74
2021/07/04 06:06:04;;;;;;;2.08;0.95;;;18.00;99.90;;;;;;5088891;28;20167;-74
2021/07/04 06:08:29;;;;;;;0.50;0.50;;;18.00;99.90;;;;;;5091902;28;20161;-74
2021/07/04 06:10:55;;;;;;;0.65;0.65;;;18.00;99.90;;;;;;5074384;28;20254;-74
2021/07/04 06:13:22;;;;;;;0.68;0.68;;;18.10;99.90;;;;;;5092681;28;20156;-74
2021/07/04 06:15:48;;;;;;;0.50;0.50;;;18.20;99.90;;;;;;5092646;28;20156;-74
2021/07/04 06:18:14;;;;;;;3.40;2.83;;;18.30;99.90;;;;;;5092508;28;20182;-73
2021/07/04 06:20:41;;;;;;;1.05;0.98;;;18.40;99.90;;;;;;5074568;28;20195;-74
2021/07/04 06:23:07;;;;;;;0.45;0.45;;;18.40;99.90;;;;;;5074491;28;20233;-74
2021/07/04 06:25:33;;;;;;;0.63;0.63;;;18.50;99.90;;;;;;5092379;28;20180;-74
2021/07/04 06:27:59;;;;;;;1.00;1.00;;;18.60;99.90;;;;;;5061748;28;20196;-74
2021/07/04 06:30:25;;;;;;;1.95;1.63;;;18.60;99.90;;;;;;5074754;28;20216;-73
2021/07/04 06:32:51;;;;;;;0.93;0.93;;;18.80;99.90;;;;;;5091979;28;20695;-74
2021/07/04 06:35:17;;;;;;;0.52;0.47;;;18.90;99.90;;;;;;5091835;28;20501;-74
2021/07/04 06:37:44;;;;;;;0.63;0.35;;;19.10;99.90;;;;;;5091870;28;20158;-74
2021/07/04 06:40:12;;;;;;;0.93;0.88;;;19.30;99.90;;;;;;5091848;28;20263;-74
2021/07/04 06:42:38;;;;;;;0.45;0.45;;;19.40;99.90;;;;;;5091218;28;20172;-74
2021/07/04 06:45:08;;;;;;;1.35;0.68;;;19.50;99.90;;;;;;5091560;28;20192;-74
2021/07/04 06:47:34;;;;;;;0.45;0.30;;;19.50;99.90;;;;;;5091630;28;20227;-74
2021/07/04 06:50:00;;;;;;;0.55;0.55;;;19.50;99.90;;;;;;5091821;28;20218;-74
2021/07/04 06:52:26;;;;;;;0.55;0.55;;;19.60;99.90;;;;;;5092027;28;20218;-74
2021/07/04 06:54:52;;;;;;;1.27;0.90;;;19.60;99.90;;;;;;5092029;28;20164;-74
2021/07/04 06:57:27;;;;;;;10.30;1.05;;;19.60;99.90;;;;;;5091892;28;20163;-74
2021/07/04 06:59:58;;;;;;;1.60;1.20;;;19.60;99.90;;;;;;5091740;28;20171;-74
2021/07/04 07:02:26;;;;;;;2.08;0.77;;;19.50;99.90;;;;;;5091687;28;20159;-74
2021/07/04 07:04:52;;;;;;;0.88;0.30;;;19.40;99.90;;;;;;5088188;28;20168;-74
2021/07/04 07:07:20;;;;;;;0.57;0.57;;;19.30;99.90;;;;;;5070812;28;20168;-74
2021/07/04 07:09:46;;;;;;;2.05;1.50;;;19.40;99.90;;;;;;5071269;28;20172;-74
2021/07/04 07:12:12;;;;;;;0.65;0.52;;;19.60;99.90;;;;;;5053063;28;20200;-74
2021/07/04 07:14:38;;;;;;;0.63;0.63;;;19.80;99.90;;;;;;5071373;28;20152;-74
2021/07/04 07:17:04;;;;;;;1.40;1.30;;;20.00;99.90;;;;;;5071220;28;20165;-75
2021/07/04 07:19:30;;;;;;;0.60;0.60;;;20.20;99.90;;;;;;5070803;28;20157;-74
2021/07/04 07:21:56;;;;;;;0.30;0.30;;;20.30;99.90;;;;;;5071056;28;20200;-74
2021/07/04 07:24:22;;;;;;;1.10;0.70;;;20.50;99.90;;;;;;5071062;28;20156;-74
2021/07/04 07:26:49;;;;;;;0.57;0.57;;;20.60;99.90;;;;;;5080902;28;20191;-74
2021/07/04 07:29:14;;;;;;;3.25;1.25;;;20.80;99.90;;;;;;5091025;28;20175;-74
2021/07/04 07:31:40;;;;;;;2.03;0.95;;;21.20;99.90;;;;;;5090692;28;20200;-74
2021/07/04 07:34:06;;;;;;;0.30;0.28;;;21.40;99.90;;;;;;5090553;28;20164;-74
2021/07/04 07:36:32;;;;;;;4.30;0.95;;;21.50;99.90;;;;;;5090641;28;20152;-74
2021/07/04 07:38:58;;;;;;;1.17;1.15;;;21.80;99.90;;;;;;5090538;28;20646;-74
2021/07/04 07:41:25;;;;;;;1.48;1.17;;;22.20;99.90;;;;;;5090486;28;20199;-74
2021/07/04 07:43:50;;;;;;;1.50;1.27;;;22.40;99.90;;;;;;5085899;28;20183;-74
2021/07/04 07:46:17;;;;;;;1.10;0.90;;;22.40;99.90;;;;;;5089386;28;20229;-74
2021/07/04 07:48:43;;;;;;;1.05;1.00;;;22.80;99.90;;;;;;5090323;28;20182;-74
2021/07/04 07:51:09;;;;;;;0.55;0.55;;;23.00;99.90;;;;;;5090100;28;20262;-74
2021/07/04 07:53:35;;;;;;;0.88;0.88;;;23.40;99.90;;;;;;5090346;28;20155;-74
2021/07/04 07:56:01;;;;;;;0.88;0.88;;;23.00;99.90;;;;;;5071800;28;20172;-74
2021/07/04 07:58:27;;;;;;;1.17;1.15;;;23.20;99.90;;;;;;5090275;28;20156;-74
2021/07/04 08:00:53;;;;;;;1.02;0.98;;;23.80;99.90;;;;;;5072103;28;20285;-74
2021/07/04 08:03:19;;;;;;;0.60;0.60;;;24.20;99.90;;;;;;5072230;28;20184;-75
2021/07/04 08:05:45;;;;;;;0.73;0.73;;;24.50;99.90;;;;;;5089708;28;20167;-75
2021/07/04 08:08:11;;;;;;;1.40;1.27;;;24.60;99.90;;;;;;5072141;28;20172;-74
2021/07/04 08:10:37;;;;;;;0.30;0.30;;;24.60;99.90;;;;;;5089817;28;20220;-74
2021/07/04 08:13:04;;;;;;;0.98;0.93;;;24.00;99.90;;;;;;5089957;28;20160;-74
2021/07/04 08:15:30;;;;;;;0.77;0.77;;;23.80;99.90;;;;;;5089492;28;20164;-75
2021/07/04 08:17:57;;;;;;;1.27;0.63;;;23.90;99.90;;;;;;5089903;28;20279;-75
2021/07/04 08:20:23;;;;;;;0.95;0.88;;;24.30;99.90;;;;;;5089856;28;20183;-75
2021/07/04 08:22:50;;;;;;;1.30;1.20;;;25.00;99.90;;;;;;5089851;28;20175;-74
2021/07/04 08:25:17;;;;;;;1.00;1.00;;;25.40;99.90;;;;;;5089235;28;20163;-75
2021/07/04 08:27:44;;;;;;;1.58;0.88;;;25.30;99.90;;;;;;5071640;28;20180;-75
2021/07/04 08:30:12;;;;;;;3.35;1.85;;;25.50;99.90;;;;;;5051637;28;20196;-74
2021/07/04 08:32:38;;;;;;;1.17;1.08;;;25.70;99.90;;;;;;5071575;28;20199;-75
2021/07/04 08:35:05;;;;;;;0.80;0.77;;;24.80;99.90;;;;;;5089358;28;20159;-75
2021/07/04 08:37:32;;;;;;;1.52;1.42;;;24.60;99.90;;;;;;5089493;28;20166;-75
2021/07/04 08:39:58;;;;;;;0.60;0.60;;;24.20;99.90;;;;;;5089404;28;20216;-75
2021/07/04 08:42:24;;;;;;;4.18;1.55;;;24.10;99.90;;;;;;5089412;28;20266;-75
2021/07/04 08:44:53;;;;;;;0.93;0.88;;;24.80;99.90;;;;;;5075522;28;20172;-75
2021/07/04 08:47:24;;;;;;;0.40;0.40;;;25.80;99.90;;;;;;5068892;28;20572;-75
2021/07/04 08:49:52;;;;;;;0.85;0.85;;;26.10;99.90;;;;;;5051306;28;20172;-74
2021/07/04 08:52:19;;;;;;;0.95;0.68;;;26.10;99.90;;;;;;5069014;28;20184;-74
2021/07/04 08:54:45;;;;;;;0.28;0.28;;;25.80;99.90;;;;;;5069279;28;20156;-74
2021/07/04 08:57:12;;;;;;;0.85;0.85;;;25.80;99.90;;;;;;5068763;28;20170;-75
2021/07/04 08:59:39;;;;;;;0.40;0.40;;;25.60;99.90;;;;;;5051124;28;20329;-75
2021/07/04 09:02:11;;;;;;;0.63;0.63;;;25.80;99.90;;;;;;5069011;28;20153;-74
2021/07/04 09:04:38;;;;;;;0.90;0.60;;;25.60;99.90;;;;;;5051071;28;20180;-74
2021/07/04 09:07:04;;;;;;;0.93;0.55;;;25.10;99.90;;;;;;5068493;28;20217;-74
2021/07/04 09:09:31;;;;;;;0.82;0.43;;;24.40;99.90;;;;;;5051029;28;20187;-74
2021/07/04 09:12:06;;;;;;;0.25;0.22;;;23.90;99.90;;;;;;5068799;28;20738;-74
2021/07/04 09:14:34;;;;;;;2.08;1.30;;;23.90;99.90;;;;;;5068788;28;20155;-74
2021/07/04 09:17:02;;;;;;;0.70;0.70;;;23.90;99.90;;;;;;5050484;28;20192;-74
2021/07/04 09:19:28;;;;;;;0.73;0.73;;;23.80;99.90;;;;;;5068830;28;20220;-74
2021/07/04 09:21:58;;;;;;;0.10;0.10;;;23.60;99.90;;;;;;5068772;28;20198;-74
2021/07/04 09:24:27;;;;;;;0.88;0.88;;;23.50;99.90;;;;;;5068937;28;20191;-75
2021/07/04 09:26:53;;;;;;;0.22;0.22;;;23.60;99.90;;;;;;5057242;28;20186;-75
2021/07/04 09:29:44;;;;;;;0.55;0.38;;;23.50;99.90;;;;;;5070732;28;20193;-74
2021/07/04 09:32:17;;;;;;;0.85;0.85;;;23.70;99.90;;;;;;5088509;28;20253;-74
2021/07/04 09:35:06;;;;;;;0.10;0.10;;;24.20;99.90;;;;;;5088924;28;20155;-74
2021/07/04 09:37:45;;;;;;;0.52;0.52;;;24.50;99.90;;;;;;5088933;28;20162;-74
2021/07/04 09:40:13;;;;;;;2.67;0.35;;;24.60;99.90;;;;;;5088985;28;20557;-74
2021/07/04 09:43:17;;;;;;;0.60;0.60;;;24.60;99.90;;;;;;5090391;28;20163;-74
2021/07/04 09:45:48;;;;;;;4.15;0.95;;;24.20;99.90;;;;;;5092045;28;20215;-74
2021/07/04 09:48:42;;;;;;;0.70;0.70;;;23.70;99.90;;;;;;5074992;28;20179;-74
2021/07/04 09:51:15;;;;;;;0.50;0.50;;;23.50;99.90;;;;;;5070803;28;20210;-74
2021/07/04 09:53:44;;;;;;;0.90;0.52;;;23.40;99.90;;;;;;5092768;28;20155;-75
2021/07/04 09:56:22;;;;;;;0.40;0.22;;;23.20;99.90;;;;;;5092262;28;20191;-75
2021/07/04 09:58:53;;;;;;;0.20;0.20;;;23.10;99.90;;;;;;5092750;28;20673;-74
2021/07/04 10:01:46;;;;;;;0.88;0.88;;;22.90;99.90;;;;;;5092603;28;20525;-74
2021/07/04 10:04:30;;;;;;;0.55;0.47;;;23.00;99.90;;;;;;5092658;28;20185;-74
2021/07/04 10:06:59;;;;;;;0.65;0.65;;;23.20;99.90;;;;;;5091950;28;20290;-74
2021/07/04 10:09:25;;;;;;;1.27;0.90;;;23.30;99.90;;;;;;5092584;28;20179;-74
2021/07/04 10:11:52;;;;;;;0.77;0.77;;;23.40;99.90;;;;;;5092350;28;20253;-73
2021/07/04 10:14:18;;;;;;;0.57;0.40;;;23.30;99.90;;;;;;5074354;28;20191;-74
2021/07/04 10:16:47;;;;;;;0.60;0.60;;;23.60;99.90;;;;;;5092420;28;20226;-74
2021/07/04 10:19:24;;;;;;;0.40;0.40;;;23.80;99.90;;;;;;5092615;28;20234;-74
2021/07/04 10:22:03;;;;;;;0.15;0.10;;;24.00;99.90;;;;;;5092438;28;20159;-74
2021/07/04 10:24:30;;;;;;;4.78;0.57;;;24.10;99.90;;;;;;5092494;28;20246;-74
2021/07/04 10:26:58;;;;;;;1.35;0.68;;;24.10;99.90;;;;;;5088425;28;20192;-74
2021/07/04 10:29:27;;;;;;;0.80;0.80;;;24.00;99.90;;;;;;5090065;28;20230;-74
2021/07/04 10:31:53;;;;;;;3.10;0.95;;;24.00;99.90;;;;;;5092050;28;20282;-74
2021/07/04 10:34:25;;;;;;;0.50;0.50;;;24.20;99.90;;;;;;5092196;28;20188;-75
2021/07/04 10:37:02;;;;;;;0.85;0.57;;;24.30;99.90;;;;;;5092182;28;20148;-74
2021/07/04 10:39:31;;;;;;;1.40;0.75;;;24.50;99.90;;;;;;5092210;28;20170;-74
2021/07/04 10:42:05;;;;;;;2.85;1.10;;;24.20;99.90;;;;;;5092340;28;20159;-74
2021/07/04 10:44:45;;;;;;;0.65;0.65;;;24.40;99.90;;;;;;5091923;28;20190;-74
2021/07/04 10:47:14;;;;;;;3.13;1.52;;;24.20;99.90;;;;;;5091853;28;20297;-74
2021/07/04 10:49:42;;;;;;;0.40;0.40;;;24.00;99.90;;;;;;5073910;28;20206;-74
2021/07/04 10:52:10;;;;;;;0.68;0.55;;;24.20;99.90;;;;;;5091676;28;20247;-74
2021/07/04 10:54:39;;;;;;;0.55;0.55;;;23.80;99.90;;;;;;5091232;28;20194;-74
2021/07/04 10:57:13;;;;;;;0.57;0.57;;;23.60;99.90;;;;;;5091881;28;20183;-74
2021/07/04 11:00:06;;;;;;;0.28;0.28;;;23.60;99.90;;;;;;5091718;28;20158;-74
2021/07/04 11:02:49;;;;;;;0.30;0.30;;;23.40;99.90;;;;;;5073668;28;20250;-74
2021/07/04 11:05:39;;;;;;;0.47;0.43;;;23.20;99.90;;;;;;5091490;28;20191;-74
2021/07/04 11:08:09;;;;;;;0.30;0.30;;;23.20;99.90;;;;;;5091542;28;20194;-74
2021/07/04 11:10:56;;;;;;;1.63;1.13;;;23.70;99.90;;;;;;5091587;28;20158;-74
2021/07/04 11:13:29;;;;;;;0.28;0.28;;;23.90;99.90;;;;;;5091395;28;20649;-74
2021/07/04 11:16:10;;;;;;;0.45;0.45;;;23.80;99.90;;;;;;5091309;28;20162;-74
2021/07/04 11:18:49;;;;;;;0.30;0.30;;;24.00;99.90;;;;;;5091498;28;20166;-74
2021/07/04 11:21:18;;;;;;;0.60;0.60;;;24.30;99.90;;;;;;5091230;28;20183;-74
2021/07/04 11:23:45;;;;;;;0.57;0.57;;;24.30;99.90;;;;;;5091092;28;20236;-74
2021/07/04 11:26:16;;;;;;;0.50;0.50;;;24.20;99.90;;;;;;5091282;28;20199;-74
2021/07/04 11:28:47;;;;;;;0.10;0.10;;;24.50;99.90;;;;;;5090965;28;20183;-74
2021/07/04 11:31:16;;;;;;;0.50;0.50;;;24.80;99.90;;;;;;5081499;28;20200;-74
2021/07/04 11:33:55;;;;;;;0.40;0.20;;;24.60;99.90;;;;;;5070740;28;20163;-74
2021/07/04 11:36:28;;;;;;;0.63;0.50;;;24.50;99.90;;;;;;5070269;28;20237;-74
2021/07/04 11:38:56;;;;;;;0.45;0.45;;;24.30;99.90;;;;;;5070372;28;20152;-74
2021/07/04 11:41:35;;;;;;;0.55;0.55;;;24.30;99.90;;;;;;5070846;28;20222;-74
2021/07/04 11:44:05;;;;;;;0.70;0.70;;;24.10;99.90;;;;;;5070549;28;20235;-73
2021/07/04 11:46:34;;;;;;;0.70;0.70;;;23.70;99.90;;;;;;5052669;28;20219;-74
2021/07/04 11:49:29;;;;;;;0.93;0.80;;;23.60;99.90;;;;;;5070783;28;20180;-74
2021/07/04 11:51:59;;;;;;;1.48;0.82;;;23.60;99.90;;;;;;5068146;28;20241;-74
2021/07/04 11:54:30;;;;;;;0.40;0.30;;;23.80;99.90;;;;;;5070610;28;20498;-74
2021/07/04 11:59:58;;;;;;;0.60;0.60;;;24.80;99.90;;;;;;5070477;28;20691;-74
2021/07/04 12:02:24;;;;;;;1.35;0.95;;;25.50;99.90;;;;;;5070554;28;20156;-73
2021/07/04 12:04:50;;;;;;;1.50;0.95;;;25.40;99.90;;;;;;5051573;28;20255;-73
2021/07/04 12:07:21;;;;;;;1.27;1.23;;;24.70;99.90;;;;;;5070403;28;20167;-74
2021/07/04 12:09:48;;;;;;;1.23;0.77;;;24.20;99.90;;;;;;5052366;28;20195;-74
2021/07/04 12:12:29;;;;;;;1.33;1.23;;;23.70;99.90;;;;;;5070092;28;20187;-73
2021/07/04 12:15:13;;;;;;;1.85;1.40;;;24.00;99.90;;;;;;5052198;28;20172;-74
2021/07/04 12:17:42;;;;;;;0.77;0.77;;;24.20;99.90;;;;;;5070154;28;20161;-73
2021/07/04 12:20:09;;;;;;;0.10;0.10;;;23.80;99.90;;;;;;5070107;28;20184;-74
2021/07/04 12:23:03;;;;;;;3.50;1.17;;;23.60;99.90;;;;;;5070168;28;20241;-73
2021/07/04 12:25:43;;;;;;;0.50;0.50;;;23.80;99.90;;;;;;5058411;28;20676;-73
2021/07/04 12:28:10;;;;;;;0.70;0.70;;;24.20;99.90;;;;;;5077342;28;20175;-73
2021/07/04 12:30:43;;;;;;;1.15;0.68;;;24.80;99.90;;;;;;5085953;28;20219;-73
2021/07/04 12:33:24;;;;;;;0.85;0.35;;;25.20;99.90;;;;;;5069828;28;20236;-74
2021/07/04 12:36:05;;;;;;;1.88;0.93;;;25.50;99.90;;;;;;5051951;28;20171;-73
2021/07/04 12:38:36;;;;;;;1.30;0.70;;;25.30;99.90;;;;;;5069868;28;20152;-73
2021/07/04 12:41:04;;;;;;;0.52;0.50;;;24.20;99.90;;;;;;5069634;28;20190;-73
2021/07/04 12:43:39;;;;;;;0.30;0.30;;;23.90;99.90;;;;;;5069748;28;20693;-73
2021/07/04 12:46:30;;;;;;;0.80;0.65;;;23.70;99.90;;;;;;5048109;28;20224;-73
2021/07/04 12:48:59;;;;;;;1.63;0.93;;;23.40;99.90;;;;;;5049674;28;20157;-74
2021/07/04 12:51:34;;;;;;;0.43;0.43;;;23.60;99.90;;;;;;5047869;28;20212;-74
2021/07/04 12:54:01;;;;;;;0.40;0.32;;;23.70;99.90;;;;;;5049757;28;20221;-74
2021/07/04 12:56:32;;;;;;;0.43;0.43;;;23.80;99.90;;;;;;5050127;28;20173;-74